sensor_id;sensor_type;location;lat;lon;timestamp;temperature;humidity
35700;DHT22;21818;51.078;12.108;2023-07-13T00:00:23;23.20;69.40
35700;DHT22;21818;51.078;12.108;2023-07-13T00:02:49;23.20;69.50
35700;DHT22;21818;51.078;12.108;2023-07-13T00:05:14;23.20;69.50
35700;DHT22;21818;51.078;12.108;2023-07-13T00:07:40;23.30;69.40
35700;DHT22;21818;51.078;12.108;2023-07-13T00:10:06;23.40;69.70
35700;DHT22;21818;51.078;12.108;2023-07-13T00:12:36;23.40;69.20
35700;DHT22;21818;51.078;12.108;2023-07-13T00:15:06;23.40;69.30
35700;DHT22;21818;51.078;12.108;2023-07-13T00:17:32;23.40;69.30
35700;DHT22;21818;51.078;12.108;2023-07-13T00:19:58;23.30;69.50
35700;DHT22;21818;51.078;12.108;2023-07-13T00:22:24;23.30;70.00
35700;DHT22;21818;51.078;12.108;2023-07-13T00:24:52;23.30;70.30
35700;DHT22;21818;51.078;12.108;2023-07-13T00:27:18;23.30;70.40
35700;DHT22;21818;51.078;12.108;2023-07-13T00:29:44;23.20;70.90
35700;DHT22;21818;51.078;12.108;2023-07-13T00:32:10;23.10;71.40
35700;DHT22;21818;51.078;12.108;2023-07-13T00:34:37;23.20;71.60
35700;DHT22;21818;51.078;12.108;2023-07-13T00:37:04;23.00;72.20
35700;DHT22;21818;51.078;12.108;2023-07-13T00:39:32;23.00;72.40
35700;DHT22;21818;51.078;12.108;2023-07-13T00:41:58;22.90;72.40
35700;DHT22;21818;51.078;12.108;2023-07-13T00:44:24;22.70;73.10
35700;DHT22;21818;51.078;12.108;2023-07-13T00:46:50;22.50;73.70
35700;DHT22;21818;51.078;12.108;2023-07-13T00:49:20;22.40;74.00
35700;DHT22;21818;51.078;12.108;2023-07-13T00:54:21;22.20;75.20
35700;DHT22;21818;51.078;12.108;2023-07-13T00:56:51;22.10;75.50
35700;DHT22;21818;51.078;12.108;2023-07-13T00:59:18;22.30;75.40
35700;DHT22;21818;51.078;12.108;2023-07-13T01:01:45;22.50;74.20
35700;DHT22;21818;51.078;12.108;2023-07-13T01:04:11;22.50;73.40
35700;DHT22;21818;51.078;12.108;2023-07-13T01:06:37;22.50;73.10
35700;DHT22;21818;51.078;12.108;2023-07-13T01:09:04;22.50;73.10
35700;DHT22;21818;51.078;12.108;2023-07-13T01:11:31;22.40;72.90
35700;DHT22;21818;51.078;12.108;2023-07-13T01:13:57;22.30;72.80
35700;DHT22;21818;51.078;12.108;2023-07-13T01:16:29;22.20;73.30
35700;DHT22;21818;51.078;12.108;2023-07-13T01:18:56;22.20;73.60
35700;DHT22;21818;51.078;12.108;2023-07-13T01:21:28;22.20;73.50
35700;DHT22;21818;51.078;12.108;2023-07-13T01:23:54;22.10;73.70
35700;DHT22;21818;51.078;12.108;2023-07-13T01:26:20;22.10;73.90
35700;DHT22;21818;51.078;12.108;2023-07-13T01:28:45;22.10;74.20
35700;DHT22;21818;51.078;12.108;2023-07-13T01:31:11;22.00;74.60
35700;DHT22;21818;51.078;12.108;2023-07-13T01:33:39;22.00;75.20
35700;DHT22;21818;51.078;12.108;2023-07-13T01:36:06;21.90;75.80
35700;DHT22;21818;51.078;12.108;2023-07-13T01:38:32;21.90;76.30
35700;DHT22;21818;51.078;12.108;2023-07-13T01:40:59;21.90;77.00
35700;DHT22;21818;51.078;12.108;2023-07-13T01:43:25;21.80;77.60
35700;DHT22;21818;51.078;12.108;2023-07-13T01:45:50;21.80;78.30
35700;DHT22;21818;51.078;12.108;2023-07-13T01:48:16;21.80;78.20
35700;DHT22;21818;51.078;12.108;2023-07-13T01:50:41;21.90;77.40
35700;DHT22;21818;51.078;12.108;2023-07-13T01:53:07;21.90;76.50
35700;DHT22;21818;51.078;12.108;2023-07-13T01:55:34;21.90;76.00
35700;DHT22;21818;51.078;12.108;2023-07-13T01:57:59;21.90;75.50
35700;DHT22;21818;51.078;12.108;2023-07-13T02:00:25;21.80;75.40
35700;DHT22;21818;51.078;12.108;2023-07-13T02:02:51;21.70;75.40
35700;DHT22;21818;51.078;12.108;2023-07-13T02:05:16;21.60;75.50
35700;DHT22;21818;51.078;12.108;2023-07-13T02:07:42;21.60;75.70
35700;DHT22;21818;51.078;12.108;2023-07-13T02:10:10;21.50;75.90
35700;DHT22;21818;51.078;12.108;2023-07-13T02:12:36;21.50;76.00
35700;DHT22;21818;51.078;12.108;2023-07-13T02:15:03;21.60;75.80
35700;DHT22;21818;51.078;12.108;2023-07-13T02:17:28;21.70;75.60
35700;DHT22;21818;51.078;12.108;2023-07-13T02:19:54;21.70;75.00
35700;DHT22;21818;51.078;12.108;2023-07-13T02:22:20;21.80;75.00
35700;DHT22;21818;51.078;12.108;2023-07-13T02:24:45;21.80;74.40
35700;DHT22;21818;51.078;12.108;2023-07-13T02:27:11;21.80;74.40
35700;DHT22;21818;51.078;12.108;2023-07-13T02:29:36;21.60;74.50
35700;DHT22;21818;51.078;12.108;2023-07-13T02:32:02;21.60;74.30
35700;DHT22;21818;51.078;12.108;2023-07-13T02:34:28;21.70;74.10
35700;DHT22;21818;51.078;12.108;2023-07-13T02:36:53;21.60;73.60
35700;DHT22;21818;51.078;12.108;2023-07-13T02:39:19;21.50;73.80
35700;DHT22;21818;51.078;12.108;2023-07-13T02:41:45;21.40;74.40
35700;DHT22;21818;51.078;12.108;2023-07-13T02:44:12;21.50;74.10
35700;DHT22;21818;51.078;12.108;2023-07-13T02:46:38;21.50;74.70
35700;DHT22;21818;51.078;12.108;2023-07-13T02:49:04;21.40;74.90
35700;DHT22;21818;51.078;12.108;2023-07-13T02:51:30;21.40;75.10
35700;DHT22;21818;51.078;12.108;2023-07-13T02:53:56;21.40;75.40
35700;DHT22;21818;51.078;12.108;2023-07-13T02:56:23;21.20;75.50
35700;DHT22;21818;51.078;12.108;2023-07-13T02:58:49;21.10;75.90
35700;DHT22;21818;51.078;12.108;2023-07-13T03:01:15;21.00;76.00
35700;DHT22;21818;51.078;12.108;2023-07-13T03:03:43;20.90;76.10
35700;DHT22;21818;51.078;12.108;2023-07-13T03:06:08;21.00;76.20
35700;DHT22;21818;51.078;12.108;2023-07-13T03:08:34;20.90;76.60
35700;DHT22;21818;51.078;12.108;2023-07-13T03:11:06;20.80;76.70
35700;DHT22;21818;51.078;12.108;2023-07-13T03:13:32;20.80;77.30
35700;DHT22;21818;51.078;12.108;2023-07-13T03:15:58;20.70;77.10
35700;DHT22;21818;51.078;12.108;2023-07-13T03:18:25;20.60;77.10
35700;DHT22;21818;51.078;12.108;2023-07-13T03:20:51;20.70;77.20
35700;DHT22;21818;51.078;12.108;2023-07-13T03:23:18;20.60;77.40
35700;DHT22;21818;51.078;12.108;2023-07-13T03:25:44;20.60;77.40
35700;DHT22;21818;51.078;12.108;2023-07-13T03:28:10;20.60;77.50
35700;DHT22;21818;51.078;12.108;2023-07-13T03:30:36;20.60;77.30
35700;DHT22;21818;51.078;12.108;2023-07-13T03:33:02;20.70;77.30
35700;DHT22;21818;51.078;12.108;2023-07-13T03:35:27;20.70;77.30
35700;DHT22;21818;51.078;12.108;2023-07-13T03:37:53;20.70;77.20
35700;DHT22;21818;51.078;12.108;2023-07-13T03:40:18;20.60;77.40
35700;DHT22;21818;51.078;12.108;2023-07-13T03:42:44;20.60;77.60
35700;DHT22;21818;51.078;12.108;2023-07-13T03:45:10;20.60;77.50
35700;DHT22;21818;51.078;12.108;2023-07-13T03:47:35;20.50;77.70
35700;DHT22;21818;51.078;12.108;2023-07-13T03:50:01;20.50;77.80
35700;DHT22;21818;51.078;12.108;2023-07-13T03:52:26;20.50;77.90
35700;DHT22;21818;51.078;12.108;2023-07-13T03:54:52;20.60;77.90
35700;DHT22;21818;51.078;12.108;2023-07-13T03:57:18;20.50;78.00
35700;DHT22;21818;51.078;12.108;2023-07-13T03:59:44;20.50;78.10
35700;DHT22;21818;51.078;12.108;2023-07-13T04:02:09;20.30;79.10
35700;DHT22;21818;51.078;12.108;2023-07-13T04:04:35;20.30;78.90
35700;DHT22;21818;51.078;12.108;2023-07-13T04:07:00;20.20;79.10
35700;DHT22;21818;51.078;12.108;2023-07-13T04:09:26;20.20;79.20
35700;DHT22;21818;51.078;12.108;2023-07-13T04:11:52;20.60;79.40
35700;DHT22;21818;51.078;12.108;2023-07-13T04:14:17;21.40;78.00
35700;DHT22;21818;51.078;12.108;2023-07-13T04:16:43;21.80;76.50
35700;DHT22;21818;51.078;12.108;2023-07-13T04:19:09;21.90;76.10
35700;DHT22;21818;51.078;12.108;2023-07-13T04:21:36;21.30;77.00
35700;DHT22;21818;51.078;12.108;2023-07-13T04:24:03;21.00;78.00
35700;DHT22;21818;51.078;12.108;2023-07-13T04:26:29;20.80;78.40
35700;DHT22;21818;51.078;12.108;2023-07-13T04:28:55;20.80;78.50
35700;DHT22;21818;51.078;12.108;2023-07-13T04:31:22;20.70;78.60
35700;DHT22;21818;51.078;12.108;2023-07-13T04:33:48;20.60;78.80
35700;DHT22;21818;51.078;12.108;2023-07-13T04:36:15;20.60;79.10
35700;DHT22;21818;51.078;12.108;2023-07-13T04:38:41;20.70;79.30
35700;DHT22;21818;51.078;12.108;2023-07-13T04:41:08;20.80;79.10
35700;DHT22;21818;51.078;12.108;2023-07-13T04:43:35;21.40;78.80
35700;DHT22;21818;51.078;12.108;2023-07-13T04:46:18;22.30;77.20
35700;DHT22;21818;51.078;12.108;2023-07-13T04:48:44;22.90;76.10
35700;DHT22;21818;51.078;12.108;2023-07-13T04:51:10;23.30;74.70
35700;DHT22;21818;51.078;12.108;2023-07-13T04:53:36;23.60;74.20
35700;DHT22;21818;51.078;12.108;2023-07-13T04:56:03;23.80;73.70
35700;DHT22;21818;51.078;12.108;2023-07-13T04:58:29;24.00;73.40
35700;DHT22;21818;51.078;12.108;2023-07-13T05:01:00;24.10;73.10
35700;DHT22;21818;51.078;12.108;2023-07-13T05:03:26;24.20;73.00
35700;DHT22;21818;51.078;12.108;2023-07-13T05:06:03;24.30;72.80
35700;DHT22;21818;51.078;12.108;2023-07-13T05:08:28;24.40;72.70
35700;DHT22;21818;51.078;12.108;2023-07-13T05:10:54;24.50;72.50
35700;DHT22;21818;51.078;12.108;2023-07-13T05:13:20;24.50;72.40
35700;DHT22;21818;51.078;12.108;2023-07-13T05:15:47;24.60;72.30
35700;DHT22;21818;51.078;12.108;2023-07-13T05:18:20;24.60;72.20
35700;DHT22;21818;51.078;12.108;2023-07-13T05:20:45;24.70;72.20
35700;DHT22;21818;51.078;12.108;2023-07-13T05:23:11;24.70;72.10
35700;DHT22;21818;51.078;12.108;2023-07-13T05:25:36;24.70;72.10
35700;DHT22;21818;51.078;12.108;2023-07-13T05:28:02;24.80;72.00
35700;DHT22;21818;51.078;12.108;2023-07-13T05:30:27;24.80;72.00
35700;DHT22;21818;51.078;12.108;2023-07-13T05:32:53;24.80;71.90
35700;DHT22;21818;51.078;12.108;2023-07-13T05:35:18;24.90;71.90
35700;DHT22;21818;51.078;12.108;2023-07-13T05:37:44;24.90;71.80
35700;DHT22;21818;51.078;12.108;2023-07-13T05:40:10;24.90;71.70
35700;DHT22;21818;51.078;12.108;2023-07-13T05:42:35;24.90;71.70
35700;DHT22;21818;51.078;12.108;2023-07-13T05:45:02;24.90;71.60
35700;DHT22;21818;51.078;12.108;2023-07-13T05:47:27;25.00;71.60
35700;DHT22;21818;51.078;12.108;2023-07-13T05:49:53;25.00;71.60
35700;DHT22;21818;51.078;12.108;2023-07-13T05:52:19;25.00;71.50
35700;DHT22;21818;51.078;12.108;2023-07-13T05:54:44;25.00;71.50
35700;DHT22;21818;51.078;12.108;2023-07-13T05:57:10;25.00;71.50
35700;DHT22;21818;51.078;12.108;2023-07-13T05:59:35;25.00;71.40
35700;DHT22;21818;51.078;12.108;2023-07-13T06:02:01;25.10;71.40
35700;DHT22;21818;51.078;12.108;2023-07-13T06:04:26;25.10;71.40
35700;DHT22;21818;51.078;12.108;2023-07-13T06:06:52;25.10;71.30
35700;DHT22;21818;51.078;12.108;2023-07-13T06:09:18;25.10;71.30
35700;DHT22;21818;51.078;12.108;2023-07-13T06:11:44;25.10;71.30
35700;DHT22;21818;51.078;12.108;2023-07-13T06:14:10;25.10;71.30
35700;DHT22;21818;51.078;12.108;2023-07-13T06:16:35;25.20;71.30
35700;DHT22;21818;51.078;12.108;2023-07-13T06:19:01;25.20;71.30
35700;DHT22;21818;51.078;12.108;2023-07-13T06:21:27;25.20;71.20
35700;DHT22;21818;51.078;12.108;2023-07-13T06:23:53;25.20;71.10
35700;DHT22;21818;51.078;12.108;2023-07-13T06:26:20;25.20;71.10
35700;DHT22;21818;51.078;12.108;2023-07-13T06:28:48;25.20;71.10
35700;DHT22;21818;51.078;12.108;2023-07-13T06:31:14;25.20;71.10
35700;DHT22;21818;51.078;12.108;2023-07-13T06:33:40;25.30;71.10
35700;DHT22;21818;51.078;12.108;2023-07-13T06:36:07;25.30;71.10
35700;DHT22;21818;51.078;12.108;2023-07-13T06:38:33;25.30;71.00
35700;DHT22;21818;51.078;12.108;2023-07-13T06:40:59;25.30;71.00
35700;DHT22;21818;51.078;12.108;2023-07-13T06:43:25;25.30;71.00
35700;DHT22;21818;51.078;12.108;2023-07-13T06:45:54;25.30;70.90
35700;DHT22;21818;51.078;12.108;2023-07-13T06:48:20;25.30;70.90
35700;DHT22;21818;51.078;12.108;2023-07-13T06:50:47;25.30;70.90
35700;DHT22;21818;51.078;12.108;2023-07-13T06:53:13;25.40;70.90
35700;DHT22;21818;51.078;12.108;2023-07-13T06:55:39;25.40;70.90
35700;DHT22;21818;51.078;12.108;2023-07-13T06:58:05;25.40;70.90
35700;DHT22;21818;51.078;12.108;2023-07-13T07:00:31;25.40;70.70
35700;DHT22;21818;51.078;12.108;2023-07-13T07:02:57;25.40;70.80
35700;DHT22;21818;51.078;12.108;2023-07-13T07:05:22;25.40;70.80
35700;DHT22;21818;51.078;12.108;2023-07-13T07:07:49;25.40;70.80
35700;DHT22;21818;51.078;12.108;2023-07-13T07:10:15;25.40;70.70
35700;DHT22;21818;51.078;12.108;2023-07-13T07:12:40;25.40;70.70
35700;DHT22;21818;51.078;12.108;2023-07-13T07:15:06;25.50;70.80
35700;DHT22;21818;51.078;12.108;2023-07-13T07:17:32;25.50;70.70
35700;DHT22;21818;51.078;12.108;2023-07-13T07:19:58;25.50;70.70
35700;DHT22;21818;51.078;12.108;2023-07-13T07:22:23;25.50;70.70
35700;DHT22;21818;51.078;12.108;2023-07-13T07:24:52;25.50;70.70
35700;DHT22;21818;51.078;12.108;2023-07-13T07:27:18;25.50;70.50
35700;DHT22;21818;51.078;12.108;2023-07-13T07:29:43;25.50;70.60
35700;DHT22;21818;51.078;12.108;2023-07-13T07:32:09;25.50;70.60
35700;DHT22;21818;51.078;12.108;2023-07-13T07:34:34;25.50;70.60
35700;DHT22;21818;51.078;12.108;2023-07-13T07:37:01;25.50;70.50
35700;DHT22;21818;51.078;12.108;2023-07-13T07:39:27;25.50;71.00
35700;DHT22;21818;51.078;12.108;2023-07-13T07:41:52;25.50;70.40
35700;DHT22;21818;51.078;12.108;2023-07-13T07:44:18;25.50;70.40
35700;DHT22;21818;51.078;12.108;2023-07-13T07:46:44;25.60;70.40
35700;DHT22;21818;51.078;12.108;2023-07-13T07:49:10;25.60;70.40
35700;DHT22;21818;51.078;12.108;2023-07-13T07:51:36;25.60;70.40
35700;DHT22;21818;51.078;12.108;2023-07-13T07:54:02;25.60;70.50
35700;DHT22;21818;51.078;12.108;2023-07-13T07:56:28;25.60;70.40
35700;DHT22;21818;51.078;12.108;2023-07-13T07:58:53;25.60;70.20
35700;DHT22;21818;51.078;12.108;2023-07-13T08:01:19;25.60;70.20
35700;DHT22;21818;51.078;12.108;2023-07-13T08:03:44;25.60;70.30
35700;DHT22;21818;51.078;12.108;2023-07-13T08:06:10;25.70;70.30
35700;DHT22;21818;51.078;12.108;2023-07-13T08:08:36;25.70;70.30
35700;DHT22;21818;51.078;12.108;2023-07-13T08:11:05;25.70;70.40
35700;DHT22;21818;51.078;12.108;2023-07-13T08:13:32;25.70;70.40
35700;DHT22;21818;51.078;12.108;2023-07-13T08:15:58;25.70;70.40
35700;DHT22;21818;51.078;12.108;2023-07-13T08:18:24;25.70;70.40
35700;DHT22;21818;51.078;12.108;2023-07-13T08:20:49;25.70;70.30
35700;DHT22;21818;51.078;12.108;2023-07-13T08:23:15;25.70;70.20
35700;DHT22;21818;51.078;12.108;2023-07-13T08:25:42;25.70;70.30
35700;DHT22;21818;51.078;12.108;2023-07-13T08:28:07;25.70;70.30
35700;DHT22;21818;51.078;12.108;2023-07-13T08:30:33;25.70;70.30
35700;DHT22;21818;51.078;12.108;2023-07-13T08:32:59;25.70;70.30
35700;DHT22;21818;51.078;12.108;2023-07-13T08:35:24;25.70;70.20
35700;DHT22;21818;51.078;12.108;2023-07-13T08:37:51;25.70;70.20
35700;DHT22;21818;51.078;12.108;2023-07-13T08:40:17;25.70;70.20
35700;DHT22;21818;51.078;12.108;2023-07-13T08:42:48;25.70;70.20
35700;DHT22;21818;51.078;12.108;2023-07-13T08:45:23;25.70;70.30
35700;DHT22;21818;51.078;12.108;2023-07-13T08:48:11;25.70;70.20
35700;DHT22;21818;51.078;12.108;2023-07-13T08:53:19;25.80;69.90
35700;DHT22;21818;51.078;12.108;2023-07-13T08:55:46;25.80;69.80
35700;DHT22;21818;51.078;12.108;2023-07-13T08:58:15;25.80;69.60
35700;DHT22;21818;51.078;12.108;2023-07-13T09:01:02;25.80;69.70
35700;DHT22;21818;51.078;12.108;2023-07-13T09:03:37;25.80;69.60
35700;DHT22;21818;51.078;12.108;2023-07-13T09:06:07;25.80;69.50
35700;DHT22;21818;51.078;12.108;2023-07-13T09:08:50;25.80;69.50
35700;DHT22;21818;51.078;12.108;2023-07-13T09:14:33;25.80;69.40
35700;DHT22;21818;51.078;12.108;2023-07-13T09:17:04;25.80;69.10
35700;DHT22;21818;51.078;12.108;2023-07-13T09:19:32;25.80;69.10
35700;DHT22;21818;51.078;12.108;2023-07-13T09:21:59;25.80;69.10
35700;DHT22;21818;51.078;12.108;2023-07-13T09:26:58;25.90;69.20
35700;DHT22;21818;51.078;12.108;2023-07-13T09:29:29;25.80;69.00
35700;DHT22;21818;51.078;12.108;2023-07-13T09:31:57;25.90;68.90
35700;DHT22;21818;51.078;12.108;2023-07-13T09:34:24;25.90;68.80
35700;DHT22;21818;51.078;12.108;2023-07-13T09:36:50;25.90;68.70
35700;DHT22;21818;51.078;12.108;2023-07-13T09:39:30;25.90;68.60
35700;DHT22;21818;51.078;12.108;2023-07-13T09:42:24;25.90;68.50
35700;DHT22;21818;51.078;12.108;2023-07-13T09:44:52;25.90;68.40
35700;DHT22;21818;51.078;12.108;2023-07-13T09:47:20;25.90;68.40
35700;DHT22;21818;51.078;12.108;2023-07-13T09:49:54;25.90;68.40
35700;DHT22;21818;51.078;12.108;2023-07-13T09:52:21;26.00;68.50
35700;DHT22;21818;51.078;12.108;2023-07-13T09:54:49;26.00;68.40
35700;DHT22;21818;51.078;12.108;2023-07-13T09:57:22;26.00;68.30
35700;DHT22;21818;51.078;12.108;2023-07-13T09:59:51;26.00;68.20
35700;DHT22;21818;51.078;12.108;2023-07-13T10:02:23;26.00;68.10
35700;DHT22;21818;51.078;12.108;2023-07-13T10:04:56;26.00;68.10
35700;DHT22;21818;51.078;12.108;2023-07-13T10:07:24;26.00;68.10
35700;DHT22;21818;51.078;12.108;2023-07-13T10:09:54;26.00;68.10
35700;DHT22;21818;51.078;12.108;2023-07-13T10:12:20;26.00;68.00
35700;DHT22;21818;51.078;12.108;2023-07-13T10:14:46;26.00;68.00
35700;DHT22;21818;51.078;12.108;2023-07-13T10:17:14;26.10;67.80
35700;DHT22;21818;51.078;12.108;2023-07-13T10:19:42;26.00;67.80
35700;DHT22;21818;51.078;12.108;2023-07-13T10:22:27;26.00;67.90
35700;DHT22;21818;51.078;12.108;2023-07-13T10:24:55;26.10;67.80
35700;DHT22;21818;51.078;12.108;2023-07-13T10:27:30;26.00;67.70
35700;DHT22;21818;51.078;12.108;2023-07-13T10:30:14;26.10;67.50
35700;DHT22;21818;51.078;12.108;2023-07-13T10:32:40;26.10;67.50
35700;DHT22;21818;51.078;12.108;2023-07-13T10:35:10;26.10;67.40
35700;DHT22;21818;51.078;12.108;2023-07-13T10:37:45;26.10;67.30
35700;DHT22;21818;51.078;12.108;2023-07-13T10:40:16;26.10;67.20
35700;DHT22;21818;51.078;12.108;2023-07-13T10:42:46;26.10;67.20
35700;DHT22;21818;51.078;12.108;2023-07-13T10:45:16;26.10;67.20
35700;DHT22;21818;51.078;12.108;2023-07-13T10:47:43;26.10;67.10
35700;DHT22;21818;51.078;12.108;2023-07-13T10:50:20;26.10;67.00
35700;DHT22;21818;51.078;12.108;2023-07-13T10:52:51;26.10;67.10
35700;DHT22;21818;51.078;12.108;2023-07-13T10:55:54;26.10;67.10
35700;DHT22;21818;51.078;12.108;2023-07-13T10:58:29;26.20;67.00
35700;DHT22;21818;51.078;12.108;2023-07-13T11:01:12;26.10;66.90
35700;DHT22;21818;51.078;12.108;2023-07-13T11:03:55;26.10;66.80
35700;DHT22;21818;51.078;12.108;2023-07-13T11:08:59;26.20;67.10
35700;DHT22;21818;51.078;12.108;2023-07-13T11:11:34;26.10;67.20
35700;DHT22;21818;51.078;12.108;2023-07-13T11:14:03;26.20;67.20
35700;DHT22;21818;51.078;12.108;2023-07-13T11:16:45;26.20;67.10
35700;DHT22;21818;51.078;12.108;2023-07-13T11:25:35;26.20;66.60
35700;DHT22;21818;51.078;12.108;2023-07-13T11:27:44;26.20;66.60
35700;DHT22;21818;51.078;12.108;2023-07-13T11:35:46;26.20;66.40
35700;DHT22;21818;51.078;12.108;2023-07-13T11:38:20;26.20;66.40
35700;DHT22;21818;51.078;12.108;2023-07-13T11:40:47;26.30;66.50
35700;DHT22;21818;51.078;12.108;2023-07-13T11:43:15;26.20;66.40
35700;DHT22;21818;51.078;12.108;2023-07-13T11:45:42;26.30;66.40
35700;DHT22;21818;51.078;12.108;2023-07-13T11:48:37;26.20;66.20
35700;DHT22;21818;51.078;12.108;2023-07-13T11:51:04;26.30;66.30
35700;DHT22;21818;51.078;12.108;2023-07-13T11:53:44;26.30;66.30
35700;DHT22;21818;51.078;12.108;2023-07-13T11:56:11;26.30;66.10
35700;DHT22;21818;51.078;12.108;2023-07-13T11:58:36;26.30;66.30
35700;DHT22;21818;51.078;12.108;2023-07-13T12:01:03;26.30;66.30
35700;DHT22;21818;51.078;12.108;2023-07-13T12:03:33;26.30;66.20
35700;DHT22;21818;51.078;12.108;2023-07-13T12:06:06;26.30;66.10
35700;DHT22;21818;51.078;12.108;2023-07-13T12:08:43;26.30;66.00
35700;DHT22;21818;51.078;12.108;2023-07-13T12:11:16;26.30;65.90
35700;DHT22;21818;51.078;12.108;2023-07-13T12:13:44;26.30;65.90
35700;DHT22;21818;51.078;12.108;2023-07-13T12:16:15;26.30;66.00
35700;DHT22;21818;51.078;12.108;2023-07-13T12:18:42;26.30;66.00
35700;DHT22;21818;51.078;12.108;2023-07-13T12:21:13;26.30;66.10
35700;DHT22;21818;51.078;12.108;2023-07-13T12:23:39;26.30;66.10
35700;DHT22;21818;51.078;12.108;2023-07-13T12:26:09;26.30;66.10
35700;DHT22;21818;51.078;12.108;2023-07-13T12:28:38;26.40;66.10
35700;DHT22;21818;51.078;12.108;2023-07-13T12:31:29;26.40;66.20
35700;DHT22;21818;51.078;12.108;2023-07-13T12:34:07;26.40;66.40
35700;DHT22;21818;51.078;12.108;2023-07-13T12:36:35;26.40;66.70
35700;DHT22;21818;51.078;12.108;2023-07-13T12:39:11;26.40;66.80
35700;DHT22;21818;51.078;12.108;2023-07-13T12:41:38;26.40;66.90
35700;DHT22;21818;51.078;12.108;2023-07-13T12:44:08;26.40;66.90
35700;DHT22;21818;51.078;12.108;2023-07-13T12:46:35;26.40;66.90
35700;DHT22;21818;51.078;12.108;2023-07-13T12:49:00;26.40;67.00
35700;DHT22;21818;51.078;12.108;2023-07-13T12:51:32;26.40;67.00
35700;DHT22;21818;51.078;12.108;2023-07-13T12:54:08;26.50;67.10
35700;DHT22;21818;51.078;12.108;2023-07-13T12:56:37;26.50;67.00
35700;DHT22;21818;51.078;12.108;2023-07-13T12:59:04;26.50;67.00
35700;DHT22;21818;51.078;12.108;2023-07-13T13:01:34;26.50;67.00
35700;DHT22;21818;51.078;12.108;2023-07-13T13:04:02;26.50;67.00
35700;DHT22;21818;51.078;12.108;2023-07-13T13:06:32;26.50;66.90
35700;DHT22;21818;51.078;12.108;2023-07-13T13:08:59;26.50;66.90
35700;DHT22;21818;51.078;12.108;2023-07-13T13:11:26;26.50;66.80
35700;DHT22;21818;51.078;12.108;2023-07-13T13:13:53;26.50;66.80
35700;DHT22;21818;51.078;12.108;2023-07-13T13:18:53;26.50;66.80
35700;DHT22;21818;51.078;12.108;2023-07-13T13:21:20;26.60;66.90
35700;DHT22;21818;51.078;12.108;2023-07-13T13:23:46;26.50;66.90
35700;DHT22;21818;51.078;12.108;2023-07-13T13:26:14;26.60;66.90
35700;DHT22;21818;51.078;12.108;2023-07-13T13:28:41;26.60;66.90
35700;DHT22;21818;51.078;12.108;2023-07-13T13:31:08;26.60;66.90
35700;DHT22;21818;51.078;12.108;2023-07-13T13:33:38;26.60;66.90
35700;DHT22;21818;51.078;12.108;2023-07-13T13:36:12;26.60;66.90
35700;DHT22;21818;51.078;12.108;2023-07-13T13:38:38;26.70;67.10
35700;DHT22;21818;51.078;12.108;2023-07-13T13:41:05;26.60;66.90
35700;DHT22;21818;51.078;12.108;2023-07-13T13:43:31;26.70;67.00
35700;DHT22;21818;51.078;12.108;2023-07-13T13:45:59;26.70;67.00
35700;DHT22;21818;51.078;12.108;2023-07-13T13:48:35;26.70;66.90
35700;DHT22;21818;51.078;12.108;2023-07-13T13:51:15;26.70;66.90
35700;DHT22;21818;51.078;12.108;2023-07-13T13:53:41;26.70;66.90
35700;DHT22;21818;51.078;12.108;2023-07-13T13:56:08;26.70;67.40
35700;DHT22;21818;51.078;12.108;2023-07-13T13:58:33;26.70;66.90
35700;DHT22;21818;51.078;12.108;2023-07-13T14:00:59;26.70;66.80
35700;DHT22;21818;51.078;12.108;2023-07-13T14:03:25;26.80;66.90
35700;DHT22;21818;51.078;12.108;2023-07-13T14:05:54;26.80;66.80
35700;DHT22;21818;51.078;12.108;2023-07-13T14:08:22;26.80;67.40
35700;DHT22;21818;51.078;12.108;2023-07-13T14:10:50;26.80;66.80
35700;DHT22;21818;51.078;12.108;2023-07-13T14:13:25;26.80;66.80
35700;DHT22;21818;51.078;12.108;2023-07-13T14:15:54;26.80;66.80
35700;DHT22;21818;51.078;12.108;2023-07-13T14:18:20;26.80;66.70
35700;DHT22;21818;51.078;12.108;2023-07-13T14:20:47;26.90;66.80
35700;DHT22;21818;51.078;12.108;2023-07-13T14:23:15;26.90;66.80
35700;DHT22;21818;51.078;12.108;2023-07-13T14:25:42;26.90;66.70
35700;DHT22;21818;51.078;12.108;2023-07-13T14:28:21;26.90;66.70
35700;DHT22;21818;51.078;12.108;2023-07-13T14:30:48;26.90;66.70
35700;DHT22;21818;51.078;12.108;2023-07-13T14:33:14;26.90;66.70
35700;DHT22;21818;51.078;12.108;2023-07-13T14:35:40;26.90;66.70
35700;DHT22;21818;51.078;12.108;2023-07-13T14:38:10;26.90;66.60
35700;DHT22;21818;51.078;12.108;2023-07-13T14:40:36;27.00;66.70
35700;DHT22;21818;51.078;12.108;2023-07-13T14:43:03;27.00;66.70
35700;DHT22;21818;51.078;12.108;2023-07-13T14:45:30;27.00;66.60
35700;DHT22;21818;51.078;12.108;2023-07-13T14:47:56;27.00;66.60
35700;DHT22;21818;51.078;12.108;2023-07-13T14:50:31;27.00;66.60
35700;DHT22;21818;51.078;12.108;2023-07-13T14:52:57;27.00;66.60
35700;DHT22;21818;51.078;12.108;2023-07-13T14:55:23;27.00;66.60
35700;DHT22;21818;51.078;12.108;2023-07-13T14:57:51;27.10;66.60
35700;DHT22;21818;51.078;12.108;2023-07-13T15:00:21;27.10;66.60
35700;DHT22;21818;51.078;12.108;2023-07-13T15:02:50;27.10;66.50
35700;DHT22;21818;51.078;12.108;2023-07-13T15:05:22;27.10;66.50
35700;DHT22;21818;51.078;12.108;2023-07-13T15:07:51;27.10;66.50
35700;DHT22;21818;51.078;12.108;2023-07-13T15:12:46;27.20;66.50
35700;DHT22;21818;51.078;12.108;2023-07-13T15:15:12;27.20;66.50
35700;DHT22;21818;51.078;12.108;2023-07-13T15:17:41;27.20;66.50
35700;DHT22;21818;51.078;12.108;2023-07-13T15:22:45;27.20;66.40
35700;DHT22;21818;51.078;12.108;2023-07-13T15:25:19;27.20;66.30
35700;DHT22;21818;51.078;12.108;2023-07-13T15:27:45;27.20;66.30
35700;DHT22;21818;51.078;12.108;2023-07-13T15:30:12;27.30;66.40
35700;DHT22;21818;51.078;12.108;2023-07-13T15:32:38;27.30;66.40
35700;DHT22;21818;51.078;12.108;2023-07-13T15:35:05;27.30;66.30
35700;DHT22;21818;51.078;12.108;2023-07-13T15:37:31;27.30;66.30
35700;DHT22;21818;51.078;12.108;2023-07-13T15:39:56;27.30;66.20
35700;DHT22;21818;51.078;12.108;2023-07-13T15:42:23;27.30;66.20
35700;DHT22;21818;51.078;12.108;2023-07-13T15:44:48;27.30;66.20
35700;DHT22;21818;51.078;12.108;2023-07-13T15:47:15;27.30;66.20
35700;DHT22;21818;51.078;12.108;2023-07-13T15:49:41;27.30;66.30
35700;DHT22;21818;51.078;12.108;2023-07-13T15:52:33;27.30;66.20